createdAt,value
2022-08-10T00:00:14.163Z,76.43
2022-08-10T00:01:14.502Z,76.74
2022-08-10T00:02:14.750Z,77.34
2022-08-10T00:03:15.047Z,76.94
2022-08-10T00:04:21.049Z,77.84
2022-08-10T00:05:16.643Z,77.04
2022-08-10T00:06:15.830Z,77.34
2022-08-10T00:07:16.144Z,77.55
2022-08-10T00:08:23.628Z,76.64
2022-08-10T00:09:17.639Z,77.44
2022-08-10T00:10:16.976Z,77.55
2022-08-10T00:11:17.286Z,76.74
2022-08-10T00:12:17.554Z,76.27
2022-08-10T00:13:17.851Z,77.28
2022-08-10T00:14:18.164Z,76.47
2022-08-10T00:15:52.919Z,76.87
2022-08-10T00:16:19.724Z,78.08
2022-08-10T00:17:19.046Z,76.67
2022-08-10T00:18:34.865Z,77.38
2022-08-10T00:19:20.586Z,77.28
2022-08-10T00:20:19.864Z,76.97
2022-08-10T00:21:20.123Z,76.97
2022-08-10T00:22:20.426Z,76.97
2022-08-10T00:23:20.733Z,77.88
2022-08-10T00:24:21.039Z,77.88
2022-08-10T00:25:21.375Z,78.79
2022-08-10T00:26:22.050Z,78.49
2022-08-10T00:27:52.144Z,78.49
2022-08-10T00:28:23.171Z,77.48
2022-08-10T00:29:22.500Z,77.28
2022-08-10T00:30:22.818Z,77.78
2022-08-10T00:31:23.045Z,78.19
2022-08-10T00:32:23.335Z,78.99
2022-08-10T00:33:23.634Z,78.12
2022-08-10T00:34:23.950Z,77.01
2022-08-10T00:35:24.254Z,78.28
2022-08-10T00:36:24.538Z,78.49
2022-08-10T00:37:24.800Z,79.19
2022-08-10T00:38:25.112Z,78.39
2022-08-10T00:39:26.034Z,77.38
2022-08-10T00:40:35.183Z,77.92
2022-08-10T00:41:26.956Z,78.32
2022-08-10T00:42:26.353Z,78.42
2022-08-10T00:43:26.607Z,78.83
2022-08-10T00:44:26.918Z,78.92
2022-08-10T00:45:27.208Z,78.12
2022-08-10T00:46:27.478Z,77.92
2022-08-10T00:47:36.765Z,77.51
2022-08-10T00:48:29.046Z,78.22
2022-08-10T00:49:28.348Z,79.13
2022-08-10T00:50:28.683Z,78.83
2022-08-10T00:51:47.921Z,79.13
2022-08-10T00:52:30.208Z,78.32
2022-08-10T00:53:29.540Z,77.82
2022-08-10T00:54:29.786Z,79.13
2022-08-10T00:55:30.086Z,79.23
2022-08-10T00:57:10.068Z,78.83
2022-08-10T00:57:31.661Z,79.47
2022-08-10T00:58:30.957Z,79.57
2022-08-10T00:59:31.258Z,80.27
2022-08-10T01:00:31.568Z,79.87
2022-08-10T01:02:09.786Z,79.27
2022-08-10T01:02:33.454Z,79.57
2022-08-10T01:04:36.206Z,80.18
2022-08-10T01:04:58.687Z,79.47
2022-08-10T01:05:33.971Z,79.97
2022-08-10T01:06:34.271Z,80.47
2022-08-10T01:07:34.423Z,79.36
2022-08-10T01:08:33.858Z,80.38
2022-08-10T01:09:34.160Z,79.57
2022-08-10T01:10:34.479Z,80.68
2022-08-10T01:12:39.042Z,80.68
2022-08-10T01:12:40.981Z,79.47
2022-08-10T01:13:36.310Z,79.16
2022-08-10T01:14:35.611Z,80.68
2022-08-10T01:15:35.939Z,78.06
2022-08-10T01:16:36.202Z,79.27
2022-08-10T01:17:50.844Z,77.86
2022-08-10T01:18:38.175Z,76.75
2022-08-10T01:19:37.000Z,78.46
2022-08-10T01:20:37.324Z,77.95
2022-08-10T01:21:37.602Z,78.16
2022-08-10T01:22:37.863Z,77.66
2022-08-10T01:23:38.171Z,78.26
2022-08-10T01:24:38.474Z,78.26
2022-08-10T01:26:12.460Z,77.15
2022-08-10T01:26:40.694Z,77.75
2022-08-10T01:27:39.369Z,78.76
2022-08-10T01:28:39.684Z,78.46
2022-08-10T01:29:39.972Z,77.95
2022-08-10T01:30:40.289Z,77.86
2022-08-10T01:31:40.539Z,77.55
2022-08-10T01:32:40.845Z,78.46
2022-08-10T01:34:01.807Z,78.26
2022-08-10T01:34:42.418Z,78.90
2022-08-10T01:35:41.743Z,78.39
2022-08-10T01:36:42.001Z,78.50
2022-08-10T01:37:42.305Z,79.30
2022-08-10T01:38:43.554Z,78.70
2022-08-10T01:39:42.975Z,78.70
2022-08-10T01:40:43.238Z,77.59
2022-08-10T01:41:46.791Z,77.89
2022-08-10T01:42:43.781Z,78.39
2022-08-10T01:43:44.101Z,77.99
2022-08-10T01:44:44.364Z,77.59
2022-08-10T01:45:46.011Z,77.39
2022-08-10T01:46:44.986Z,79.30
2022-08-10T01:47:45.256Z,78.19
2022-08-10T01:48:45.554Z,77.59
2022-08-10T01:49:45.862Z,78.90
2022-08-10T01:50:59.141Z,77.99
2022-08-10T01:51:47.374Z,77.79
2022-08-10T01:52:46.696Z,78.80
2022-08-10T01:53:47.007Z,78.90
2022-08-10T01:54:47.308Z,78.30
2022-08-10T01:55:47.616Z,79.30
2022-08-10T01:56:47.893Z,78.80
2022-08-10T01:57:48.159Z,78.59
2022-08-10T01:58:48.453Z,79.50
2022-08-10T01:59:58.723Z,79.50
2022-08-10T02:00:50.052Z,79.91
2022-08-10T02:01:49.262Z,78.94
2022-08-10T02:02:49.564Z,79.04
2022-08-10T02:04:05.367Z,78.63
2022-08-10T02:04:51.111Z,78.94
2022-08-10T02:05:50.466Z,79.34
2022-08-10T02:06:50.736Z,79.34
2022-08-10T02:07:51.034Z,79.24
2022-08-10T02:09:04.990Z,79.74
2022-08-10T02:09:52.594Z,79.14
2022-08-10T02:10:51.913Z,78.63
2022-08-10T02:12:06.036Z,80.35
2022-08-10T02:12:53.478Z,80.05
2022-08-10T02:13:52.798Z,79.44
2022-08-10T02:14:53.109Z,79.14
2022-08-10T02:16:02.315Z,78.84
2022-08-10T02:16:54.665Z,80.65
2022-08-10T02:17:57.965Z,80.29
2022-08-10T02:18:55.230Z,79.79
2022-08-10T02:19:54.558Z,80.59
2022-08-10T02:20:54.866Z,80.08
2022-08-10T02:22:15.385Z,79.99
2022-08-10T02:22:56.398Z,79.88
2022-08-10T02:23:59.712Z,79.99
2022-08-10T02:24:55.982Z,79.68
2022-08-10T02:25:56.271Z,80.39
2022-08-10T02:26:59.817Z,79.58
2022-08-10T02:27:56.816Z,79.48
2022-08-10T02:28:57.116Z,80.05
2022-08-10T02:29:57.430Z,79.44
2022-08-10T02:30:57.751Z,79.24
2022-08-10T02:31:58.020Z,79.44
2022-08-10T02:32:58.279Z,79.04
2022-08-10T02:33:59.460Z,78.63
2022-08-10T02:34:58.870Z,78.63
2022-08-10T02:35:59.178Z,77.93
2022-08-10T02:36:59.472Z,79.04
2022-08-10T02:37:59.741Z,79.34
2022-08-10T02:39:00.924Z,79.85
2022-08-10T02:40:00.350Z,79.38
2022-08-10T02:45:01.045Z,78.57
2022-08-10T02:45:11.044Z,79.68
2022-08-10T02:45:18.089Z,78.77
2022-08-10T02:45:20.853Z,79.99
2022-08-10T02:45:29.478Z,81.30
2022-08-10T02:46:03.104Z,82.01
2022-08-10T02:47:02.301Z,82.10
2022-08-10T02:48:02.601Z,81.20
2022-08-10T02:49:02.917Z,80.90
2022-08-10T02:50:03.184Z,81.13
2022-08-10T02:51:03.486Z,80.22
2022-08-10T02:52:06.813Z,79.52
2022-08-10T02:53:05.043Z,80.63
2022-08-10T02:54:04.358Z,80.53
2022-08-10T02:55:17.029Z,80.32
2022-08-10T02:56:05.916Z,80.93
2022-08-10T02:57:05.244Z,81.34
2022-08-10T02:58:17.265Z,81.13
2022-08-10T02:59:06.770Z,80.73
2022-08-10T03:00:06.093Z,81.64
2022-08-10T03:01:06.470Z,82.35
2022-08-10T03:02:06.723Z,81.44
2022-08-10T03:03:07.016Z,80.83
2022-08-10T03:04:07.299Z,81.74
2022-08-10T03:05:07.605Z,82.35
2022-08-10T03:06:07.919Z,81.84
2022-08-10T03:07:08.213Z,81.78
2022-08-10T03:08:08.499Z,81.57
2022-08-10T03:09:08.794Z,82.28
2022-08-10T03:10:13.145Z,82.99
2022-08-10T03:11:10.375Z,81.78
2022-08-10T03:12:35.261Z,81.98
2022-08-10T03:13:10.934Z,82.99
2022-08-10T03:14:10.241Z,81.78
2022-08-10T03:15:10.556Z,83.50
2022-08-10T03:16:11.816Z,83.70
2022-08-10T03:17:11.145Z,83.60
2022-08-10T03:18:11.435Z,82.59
2022-08-10T03:20:34.133Z,82.49
2022-08-10T03:20:37.219Z,83.60
2022-08-10T03:21:13.285Z,83.80
2022-08-10T03:22:12.597Z,83.19
2022-08-10T03:23:12.904Z,83.29
2022-08-10T03:24:32.791Z,82.39
2022-08-10T03:25:14.465Z,83.29
2022-08-10T03:26:16.513Z,83.90
2022-08-10T03:27:14.013Z,83.60
2022-08-10T03:28:20.683Z,82.89
2022-08-10T03:29:15.566Z,82.08
2022-08-10T03:30:28.496Z,82.73
2022-08-10T03:31:16.156Z,82.83
2022-08-10T03:32:15.463Z,82.53
2022-08-10T03:33:15.760Z,83.94
2022-08-10T03:34:20.130Z,84.65
2022-08-10T03:35:17.315Z,86.07
2022-08-10T03:36:40.019Z,86.27
2022-08-10T03:37:17.893Z,85.56
2022-08-10T03:38:17.203Z,85.25
2022-08-10T03:39:17.563Z,84.65
2022-08-10T03:40:17.795Z,84.55
2022-08-10T03:41:18.094Z,83.64
2022-08-10T03:42:18.406Z,86.47
2022-08-10T03:43:18.693Z,86.27
2022-08-10T03:44:18.995Z,85.96
2022-08-10T03:45:19.294Z,86.47
2022-08-10T03:46:19.626Z,86.67
2022-08-10T03:47:19.879Z,85.80
2022-08-10T03:48:20.185Z,85.50
2022-08-10T03:49:20.522Z,85.70
2022-08-10T03:50:45.710Z,85.10
2022-08-10T03:51:22.068Z,85.90
2022-08-10T03:52:21.398Z,86.10
2022-08-10T03:53:25.178Z,86.82
2022-08-10T03:54:22.988Z,87.42
2022-08-10T03:56:27.468Z,87.12
2022-08-10T03:56:28.672Z,87.62
2022-08-10T03:57:23.918Z,86.71
2022-08-10T03:58:23.247Z,87.42
2022-08-10T03:59:23.564Z,87.93
2022-08-10T04:00:23.871Z,87.82
2022-08-10T04:02:45.594Z,87.82
2022-08-10T04:02:45.980Z,87.62
2022-08-10T04:03:25.767Z,87.02
2022-08-10T04:04:25.775Z,87.08
2022-08-10T04:05:26.413Z,86.77
2022-08-10T04:06:26.750Z,86.37
2022-08-10T04:07:25.975Z,86.47
2022-08-10T04:08:26.334Z,86.16
2022-08-10T04:09:42.642Z,85.66
2022-08-10T04:10:27.889Z,85.82
2022-08-10T04:11:27.141Z,85.31
2022-08-10T04:12:27.481Z,84.61
2022-08-10T04:13:27.649Z,84.14
2022-08-10T04:14:38.150Z,83.74
2022-08-10T04:15:29.279Z,84.14
2022-08-10T04:16:28.539Z,84.34
2022-08-10T04:18:03.208Z,83.94
2022-08-10T04:18:30.174Z,84.04
2022-08-10T04:19:29.382Z,84.34
2022-08-10T04:20:34.302Z,84.65
2022-08-10T04:21:31.005Z,85.56
2022-08-10T04:22:30.249Z,85.46
2022-08-10T04:23:30.567Z,85.36
2022-08-10T04:24:33.055Z,86.37
2022-08-10T04:25:31.155Z,86.16
2022-08-10T04:26:31.438Z,85.76
2022-08-10T04:27:31.638Z,86.57
2022-08-10T04:28:31.968Z,86.27
2022-08-10T04:29:32.288Z,85.46
2022-08-10T04:30:32.620Z,85.36
2022-08-10T04:31:32.987Z,85.16
2022-08-10T04:32:33.209Z,86.27
2022-08-10T04:33:33.520Z,85.76
2022-08-10T04:34:33.872Z,85.86
2022-08-10T04:35:34.150Z,86.16
2022-08-10T04:36:34.382Z,85.66
2022-08-10T04:37:34.585Z,85.46
2022-08-10T04:38:34.914Z,84.95
2022-08-10T04:39:35.293Z,85.05
2022-08-10T04:40:35.520Z,85.16
2022-08-10T04:41:35.742Z,85.42
2022-08-10T04:42:36.185Z,84.91
2022-08-10T04:43:36.218Z,84.71
2022-08-10T04:44:36.435Z,85.02
2022-08-10T04:45:50.421Z,85.31
2022-08-10T04:46:55.243Z,85.22
2022-08-10T04:47:57.282Z,85.42
2022-08-10T04:48:42.575Z,85.62
2022-08-10T04:49:56.306Z,84.91
2022-08-10T04:50:39.152Z,84.20
2022-08-10T04:51:38.436Z,85.08
2022-08-10T04:52:38.653Z,85.17
2022-08-10T04:54:03.956Z,85.38
2022-08-10T04:54:40.305Z,84.87
2022-08-10T04:55:39.585Z,84.77
2022-08-10T04:56:39.980Z,85.17
2022-08-10T04:57:40.230Z,85.08
2022-08-10T04:58:40.553Z,84.27
2022-08-10T04:59:40.918Z,84.43
2022-08-10T05:00:41.199Z,84.63
2022-08-10T05:02:21.591Z,82.71
2022-08-10T05:02:43.012Z,81.90
2022-08-10T05:04:33.826Z,82.31
2022-08-10T05:04:43.392Z,81.96
2022-08-10T05:05:42.678Z,81.36
2022-08-10T05:06:43.047Z,81.56
2022-08-10T05:07:53.746Z,81.46
2022-08-10T05:08:44.584Z,80.96
2022-08-10T05:10:01.516Z,81.82
2022-08-10T05:10:45.193Z,81.02
2022-08-10T05:11:44.475Z,81.73
2022-08-10T05:12:44.688Z,80.72
2022-08-10T05:13:45.023Z,80.92
2022-08-10T05:14:45.338Z,80.38
2022-08-10T05:15:45.608Z,80.98
2022-08-10T05:16:45.818Z,79.57
2022-08-10T05:18:04.683Z,79.36
2022-08-10T05:18:47.306Z,79.53
2022-08-10T05:20:04.455Z,79.25
2022-08-10T05:20:50.188Z,77.43
2022-08-10T05:22:03.025Z,73.70
2022-08-10T05:22:48.459Z,69.39
2022-08-10T05:23:47.719Z,63.64
2022-08-10T05:24:48.080Z,60.70
2022-08-10T05:25:48.275Z,58.20
2022-08-10T05:27:00.242Z,55.41
2022-08-10T05:27:51.726Z,53.45
2022-08-10T05:28:49.190Z,51.92
2022-08-10T05:30:02.607Z,50.46
2022-08-10T05:30:50.706Z,48.81
2022-08-10T05:31:49.986Z,47.38
2022-08-10T05:32:59.234Z,46.35
2022-08-10T05:33:51.481Z,45.03
2022-08-10T05:34:50.742Z,44.81
2022-08-10T05:35:55.173Z,43.79
2022-08-10T05:36:52.365Z,42.88
2022-08-10T05:38:12.664Z,42.45
2022-08-10T05:38:52.899Z,41.84
2022-08-10T05:39:52.230Z,41.72
2022-08-10T05:40:52.433Z,41.23
2022-08-10T05:41:53.085Z,40.62
2022-08-10T05:42:52.992Z,40.11
2022-08-10T05:43:53.243Z,39.00
2022-08-10T05:44:53.482Z,38.18
2022-08-10T05:46:18.842Z,38.30
2022-08-10T05:46:55.060Z,39.33
2022-08-10T05:48:54.899Z,40.27
2022-08-10T05:49:00.556Z,41.39
2022-08-10T05:49:55.964Z,42.00
2022-08-10T05:50:55.224Z,42.10
2022-08-10T05:51:55.496Z,42.08
2022-08-10T05:52:55.695Z,41.56
2022-08-10T05:54:03.063Z,40.23
2022-08-10T05:55:00.941Z,39.51
2022-08-10T05:55:57.571Z,38.90
2022-08-10T05:56:58.349Z,38.09
2022-08-10T05:57:57.095Z,37.95
2022-08-10T05:58:57.415Z,36.74
2022-08-10T06:00:33.383Z,35.75
2022-08-10T06:00:59.024Z,35.98
2022-08-10T06:02:30.857Z,36.49
2022-08-10T06:02:59.569Z,36.58
2022-08-10T06:03:58.842Z,36.45
2022-08-10T06:04:59.101Z,35.33
2022-08-10T06:05:59.435Z,35.70
2022-08-10T06:06:59.718Z,34.32
2022-08-10T06:07:59.928Z,34.28
2022-08-10T06:09:00.249Z,33.70
2022-08-10T06:10:00.603Z,33.70
2022-08-10T06:12:23.984Z,31.77
2022-08-10T06:12:23.984Z,33.09
2022-08-10T06:13:02.759Z,33.48
2022-08-10T06:14:13.016Z,33.54
2022-08-10T06:15:05.970Z,32.97
2022-08-10T06:16:03.286Z,35.39
2022-08-10T06:17:02.610Z,32.55
2022-08-10T06:18:02.831Z,32.24
2022-08-10T06:19:03.196Z,31.82
2022-08-10T06:20:03.398Z,31.50
2022-08-10T06:21:03.691Z,32.36
2022-08-10T06:22:03.918Z,32.26
2022-08-10T06:23:04.146Z,31.02
2022-08-10T06:24:04.558Z,31.78
2022-08-10T06:26:11.843Z,30.11
2022-08-10T06:27:06.422Z,30.23
2022-08-10T06:28:05.573Z,30.92
2022-08-10T06:29:05.876Z,30.79
2022-08-10T06:30:19.862Z,30.04
2022-08-10T06:31:07.440Z,31.78
2022-08-10T06:32:06.765Z,30.49
2022-08-10T06:33:07.076Z,30.28
2022-08-10T06:34:07.303Z,30.27
2022-08-10T06:35:07.705Z,29.39
2022-08-10T06:36:07.957Z,29.53
2022-08-10T06:37:08.224Z,30.81
2022-08-10T06:38:08.718Z,31.28
2022-08-10T06:39:30.247Z,31.18
2022-08-10T06:40:10.134Z,30.58
2022-08-10T06:41:09.435Z,30.75
2022-08-10T06:42:15.772Z,30.41
2022-08-10T06:43:11.001Z,29.24
2022-08-10T06:44:10.317Z,27.98
2022-08-10T06:45:10.566Z,28.48
2022-08-10T06:46:10.774Z,27.60
2022-08-10T06:47:11.050Z,27.59
2022-08-10T06:48:11.352Z,27.68
2022-08-10T06:49:11.570Z,27.96
2022-08-10T06:50:11.936Z,26.79
2022-08-10T06:51:12.157Z,27.72
2022-08-10T06:52:15.121Z,27.74
2022-08-10T06:53:13.745Z,27.26
2022-08-10T06:54:13.029Z,26.87
2022-08-10T06:55:13.277Z,26.21
2022-08-10T06:56:13.562Z,27.29
2022-08-10T06:57:18.058Z,27.44
2022-08-10T06:58:14.114Z,27.94
2022-08-10T06:59:22.209Z,28.72
2022-08-10T07:00:20.058Z,28.55
2022-08-10T07:01:15.099Z,28.59
2022-08-10T07:02:15.349Z,30.43
2022-08-10T07:03:15.632Z,31.57
2022-08-10T07:04:15.872Z,33.58
2022-08-10T07:05:16.071Z,32.94
2022-08-10T07:06:16.342Z,31.60
2022-08-10T07:07:16.637Z,31.32
2022-08-10T07:08:16.884Z,29.12
2022-08-10T07:09:17.100Z,27.44
2022-08-10T07:10:17.389Z,27.80
2022-08-10T07:11:17.639Z,26.14
2022-08-10T07:12:17.881Z,27.20
2022-08-10T07:14:15.567Z,27.46
2022-08-10T07:14:19.404Z,26.67
2022-08-10T07:15:18.729Z,25.54
2022-08-10T07:16:18.955Z,25.86
2022-08-10T07:17:19.314Z,27.81
2022-08-10T07:18:19.564Z,29.46
2022-08-10T07:19:19.787Z,32.29
2022-08-10T07:20:20.154Z,32.75
2022-08-10T07:21:20.384Z,31.03
2022-08-10T07:23:27.115Z,30.26
2022-08-10T07:23:55.639Z,27.89
2022-08-10T07:24:22.188Z,29.32
2022-08-10T07:25:21.533Z,30.97
2022-08-10T07:26:21.757Z,30.21
2022-08-10T07:27:22.015Z,28.51
2022-08-10T07:28:22.241Z,29.44
2022-08-10T07:29:52.746Z,30.55
2022-08-10T07:30:23.798Z,31.13
2022-08-10T07:31:55.064Z,30.62
2022-08-10T07:32:24.865Z,30.55
2022-08-10T07:33:23.617Z,31.25
2022-08-10T07:34:29.176Z,31.50
2022-08-10T07:35:25.227Z,29.38
2022-08-10T07:36:24.493Z,27.89
2022-08-10T07:37:24.826Z,29.38
2022-08-10T07:38:25.049Z,28.50
2022-08-10T07:40:03.721Z,28.26
2022-08-10T07:40:26.590Z,28.93
2022-08-10T07:41:25.809Z,29.75
2022-08-10T07:42:26.046Z,31.06
2022-08-10T07:43:26.375Z,31.76
2022-08-10T07:44:26.508Z,31.27
2022-08-10T07:45:26.878Z,31.73
2022-08-10T07:46:27.118Z,30.14
2022-08-10T07:47:53.884Z,32.18
2022-08-10T07:48:28.690Z,32.11
2022-08-10T07:49:27.948Z,30.64
2022-08-10T07:50:28.238Z,30.52
2022-08-10T07:51:28.447Z,30.18
2022-08-10T07:52:28.752Z,28.75
2022-08-10T07:53:28.998Z,27.04
2022-08-10T07:54:29.204Z,26.33
2022-08-10T07:56:02.266Z,26.04
2022-08-10T07:56:48.413Z,27.39
2022-08-10T07:57:33.105Z,29.27
2022-08-10T07:58:30.463Z,27.89
2022-08-10T07:59:30.692Z,28.02
2022-08-10T08:00:30.943Z,28.40
2022-08-10T08:01:31.212Z,28.55
2022-08-10T08:02:31.523Z,28.50
2022-08-10T08:03:31.792Z,25.93
2022-08-10T08:04:32.037Z,25.60
2022-08-10T08:05:57.970Z,24.99
2022-08-10T08:06:33.632Z,23.82
2022-08-10T08:07:32.933Z,24.20
2022-08-10T08:08:33.213Z,24.49
2022-08-10T08:09:33.446Z,24.56
2022-08-10T08:10:33.664Z,24.16
2022-08-10T08:11:33.938Z,23.27
2022-08-10T08:12:37.176Z,23.27
2022-08-10T08:13:34.424Z,23.62
2022-08-10T08:14:34.695Z,22.36
2022-08-10T08:16:20.787Z,21.73
2022-08-10T08:16:36.215Z,23.27
2022-08-10T08:17:36.520Z,22.32
2022-08-10T08:18:37.085Z,22.84
2022-08-10T08:19:45.814Z,24.01
2022-08-10T08:20:37.312Z,24.09
2022-08-10T08:24:06.201Z,23.77
2022-08-10T08:24:07.376Z,22.20
2022-08-10T08:24:10.410Z,23.74
2022-08-10T08:24:38.879Z,22.61
2022-08-10T08:25:37.689Z,22.24
2022-08-10T08:26:37.953Z,22.91
2022-08-10T08:27:38.247Z,22.72
2022-08-10T08:28:38.448Z,22.56
2022-08-10T08:29:38.742Z,23.26
2022-08-10T08:30:38.963Z,22.96
2022-08-10T08:32:01.975Z,22.95
2022-08-10T08:32:40.551Z,24.41
2022-08-10T08:33:41.151Z,24.39
2022-08-10T08:34:40.103Z,24.93
2022-08-10T08:35:40.345Z,22.71
2022-08-10T08:36:40.592Z,22.89
2022-08-10T08:38:31.322Z,22.21
2022-08-10T08:38:42.052Z,22.11
2022-08-10T08:39:41.410Z,22.45
2022-08-10T08:40:42.664Z,23.15
2022-08-10T08:41:41.942Z,23.43
2022-08-10T08:42:42.232Z,24.19
2022-08-10T08:43:42.442Z,23.12
2022-08-10T08:44:42.718Z,22.24
2022-08-10T08:45:58.716Z,23.44
2022-08-10T08:46:44.261Z,24.41
2022-08-10T08:48:03.969Z,23.44
2022-08-10T08:48:44.905Z,23.33
2022-08-10T08:50:08.587Z,24.10
2022-08-10T08:50:45.558Z,23.43
2022-08-10T08:52:09.442Z,23.58
2022-08-10T08:52:46.204Z,25.73
2022-08-10T08:54:02.493Z,27.64
2022-08-10T08:54:46.856Z,27.93
2022-08-10T08:55:56.071Z,28.69
2022-08-10T08:56:50.310Z,29.57
2022-08-10T08:57:49.171Z,28.90
2022-08-10T08:58:46.987Z,29.10
2022-08-10T08:59:47.198Z,29.30
2022-08-10T09:00:47.537Z,28.65
2022-08-10T09:01:47.957Z,30.05
2022-08-10T09:02:54.613Z,30.75
2022-08-10T09:03:49.427Z,31.16
2022-08-10T09:04:48.707Z,31.09
2022-08-10T09:05:59.698Z,33.40
2022-08-10T09:06:50.427Z,32.55
2022-08-10T09:08:00.138Z,33.58
2022-08-10T09:08:51.027Z,34.67
2022-08-10T09:09:50.294Z,35.57
2022-08-10T09:10:50.687Z,36.84
2022-08-10T09:11:50.910Z,36.25
2022-08-10T09:12:51.162Z,36.84
2022-08-10T09:13:51.375Z,35.17
2022-08-10T09:14:51.731Z,35.41
2022-08-10T09:15:51.974Z,35.89
2022-08-10T09:16:52.166Z,36.62
2022-08-10T09:17:52.432Z,37.42
2022-08-10T09:18:52.653Z,37.55
2022-08-10T09:19:53.004Z,38.15
2022-08-10T09:20:53.222Z,38.97
2022-08-10T09:22:06.084Z,38.89
2022-08-10T09:22:57.634Z,38.51
2022-08-10T09:24:04.355Z,39.20
2022-08-10T09:24:55.529Z,40.92
2022-08-10T09:25:54.802Z,40.11
2022-08-10T09:26:55.151Z,38.83
2022-08-10T09:27:55.371Z,41.00
2022-08-10T09:29:11.565Z,38.91
2022-08-10T09:29:56.954Z,38.91
2022-08-10T09:31:22.152Z,40.47
2022-08-10T09:36:13.859Z,41.24
2022-08-10T09:36:20.905Z,40.53
2022-08-10T09:36:21.419Z,37.18
2022-08-10T09:36:22.293Z,38.58
2022-08-10T09:36:23.868Z,38.07
2022-08-10T09:36:59.013Z,38.76
2022-08-10T09:38:01.868Z,37.89
2022-08-10T09:38:58.496Z,37.99
2022-08-10T09:40:56.609Z,37.51
2022-08-10T09:41:05.007Z,38.64
2022-08-10T09:42:00.283Z,39.20
2022-08-10T09:43:21.928Z,38.71
2022-08-10T09:44:00.886Z,39.97
2022-08-10T09:45:00.165Z,38.28
2022-08-10T09:46:00.375Z,39.07
2022-08-10T09:47:00.726Z,38.26
2022-08-10T09:48:03.021Z,38.44
2022-08-10T09:49:01.189Z,39.62
2022-08-10T09:50:04.637Z,37.16
2022-08-10T09:52:03.086Z,38.74
2022-08-10T09:53:02.381Z,39.62
2022-08-10T09:54:02.599Z,40.70
2022-08-10T09:55:02.938Z,39.52
2022-08-10T09:56:18.046Z,36.08
2022-08-10T09:57:43.400Z,37.48
2022-08-10T09:58:04.924Z,38.56
2022-08-10T09:59:45.892Z,37.67
2022-08-10T10:00:05.485Z,36.79
2022-08-10T10:01:04.770Z,38.36
2022-08-10T10:02:05.071Z,39.44
2022-08-10T10:03:05.344Z,38.05
2022-08-10T10:04:05.505Z,38.74
2022-08-10T10:05:05.762Z,37.07
2022-08-10T10:06:06.131Z,35.49
2022-08-10T10:07:06.343Z,36.40
2022-08-10T10:08:06.703Z,36.40
2022-08-10T10:09:10.671Z,38.76
2022-08-10T10:10:07.264Z,37.57
2022-08-10T10:11:07.479Z,36.99
2022-08-10T10:12:09.898Z,38.56
2022-08-10T10:13:08.124Z,40.62
2022-08-10T10:14:12.325Z,41.51
2022-08-10T10:15:08.672Z,39.74
2022-08-10T10:16:08.874Z,39.44
2022-08-10T10:17:09.125Z,41.80
2022-08-10T10:18:09.487Z,42.99
2022-08-10T10:19:09.672Z,40.51
2022-08-10T10:20:09.911Z,41.69
2022-08-10T10:21:10.264Z,40.51
2022-08-10T10:22:11.575Z,40.01
2022-08-10T10:23:10.864Z,36.97
2022-08-10T10:24:22.383Z,36.28
2022-08-10T10:25:20.781Z,35.49
2022-08-10T10:26:18.443Z,39.11
2022-08-10T10:27:16.120Z,35.28
2022-08-10T10:28:12.316Z,36.46
2022-08-10T10:29:37.643Z,36.85
2022-08-10T10:30:13.849Z,34.59
2022-08-10T10:31:16.591Z,34.31
2022-08-10T10:32:13.327Z,35.71
2022-08-10T10:33:14.470Z,35.90
2022-08-10T10:34:13.874Z,35.41
2022-08-10T10:35:14.150Z,35.41
2022-08-10T10:36:14.363Z,36.69
2022-08-10T10:37:14.694Z,36.38
2022-08-10T10:38:15.065Z,35.59
2022-08-10T10:39:15.297Z,37.26
2022-08-10T10:40:15.624Z,35.38
2022-08-10T10:41:16.049Z,34.90
2022-08-10T10:42:42.251Z,34.41
2022-08-10T10:43:17.565Z,35.49
2022-08-10T10:44:16.839Z,35.78
2022-08-10T10:45:17.179Z,34.80
2022-08-10T10:46:18.024Z,34.90
2022-08-10T10:47:18.869Z,35.20
2022-08-10T10:48:23.802Z,35.30
2022-08-10T10:49:19.390Z,33.91
2022-08-10T10:50:18.661Z,35.18
2022-08-10T10:51:18.977Z,36.26
2022-08-10T10:52:19.330Z,36.05
2022-08-10T10:53:19.729Z,34.28
2022-08-10T10:54:19.971Z,34.47
2022-08-10T10:55:20.168Z,32.84
2022-08-10T10:56:20.498Z,34.44
2022-08-10T10:57:20.841Z,35.23
2022-08-10T10:58:24.183Z,33.75
2022-08-10T10:59:54.019Z,34.74
2022-08-10T11:00:22.742Z,34.05
2022-08-10T11:01:22.080Z,34.25
2022-08-10T11:02:22.331Z,35.02
2022-08-10T11:03:22.590Z,34.23
2022-08-10T11:04:22.914Z,34.43
2022-08-10T11:05:23.248Z,35.21
2022-08-10T11:06:34.236Z,33.72
2022-08-10T11:07:32.063Z,33.82
2022-08-10T11:08:29.142Z,33.64
2022-08-10T11:10:08.850Z,34.13
2022-08-10T11:10:31.794Z,33.34
2022-08-10T11:12:00.895Z,33.64
2022-08-10T11:12:27.614Z,33.84
2022-08-10T11:14:25.881Z,34.11
2022-08-10T11:14:29.215Z,34.31
2022-08-10T11:15:26.171Z,34.89
2022-08-10T11:16:26.421Z,33.41
2022-08-10T11:17:26.737Z,33.80
2022-08-10T11:18:27.014Z,33.41
2022-08-10T11:20:01.519Z,33.51
2022-08-10T11:20:28.523Z,33.79
2022-08-10T11:21:27.797Z,33.49
2022-08-10T11:22:28.146Z,33.22
2022-08-10T11:23:28.394Z,33.13
2022-08-10T11:24:47.037Z,33.53
2022-08-10T11:25:29.934Z,33.74
2022-08-10T11:26:29.173Z,33.54
2022-08-10T11:27:29.427Z,33.54
2022-08-10T11:28:29.769Z,34.03
2022-08-10T11:29:30.037Z,35.39
2022-08-10T11:30:30.270Z,33.72
2022-08-10T11:31:37.336Z,33.33
2022-08-10T11:32:30.818Z,33.72
2022-08-10T11:33:32.948Z,33.23
2022-08-10T11:34:48.931Z,33.74
2022-08-10T11:35:34.927Z,34.63
2022-08-10T11:36:31.987Z,34.13
2022-08-10T11:38:31.118Z,33.74
2022-08-10T11:38:47.254Z,34.53
2022-08-10T11:39:33.857Z,33.62
2022-08-10T11:40:33.085Z,32.05
2022-08-10T11:42:07.823Z,33.62
2022-08-10T11:42:36.355Z,32.43
2022-08-10T11:43:33.986Z,32.72
2022-08-10T11:44:34.202Z,33.12
2022-08-10T11:45:34.439Z,32.92
2022-08-10T11:46:34.662Z,33.00
2022-08-10T11:47:35.000Z,32.81
2022-08-10T11:48:53.208Z,32.71
2022-08-10T11:49:36.660Z,32.20
2022-08-10T11:50:35.913Z,32.89
2022-08-10T11:51:36.160Z,31.61
2022-08-10T11:52:36.665Z,32.79
2022-08-10T11:53:39.119Z,32.01
2022-08-10T11:54:37.085Z,32.59
2022-08-10T11:55:37.422Z,31.12
2022-08-10T11:56:37.753Z,31.02
2022-08-10T11:57:53.139Z,31.43
2022-08-10T11:58:39.435Z,31.73
2022-08-10T11:59:38.733Z,31.23
2022-08-10T12:00:38.952Z,31.81
2022-08-10T12:01:39.151Z,31.53
2022-08-10T12:02:39.753Z,32.12
2022-08-10T12:03:39.664Z,31.84
2022-08-10T12:04:39.893Z,32.53
2022-08-10T12:05:51.878Z,33.12
2022-08-10T12:06:55.140Z,32.81
2022-08-10T12:10:02.165Z,32.72
2022-08-10T12:10:02.791Z,32.72
2022-08-10T12:10:11.622Z,32.92
2022-08-10T12:10:42.609Z,32.53
2022-08-10T12:11:41.867Z,32.34
2022-08-10T12:12:42.208Z,32.74
2022-08-10T12:13:58.526Z,32.72
2022-08-10T12:14:43.829Z,32.84
2022-08-10T12:15:43.109Z,33.53
2022-08-10T12:16:43.328Z,32.92
2022-08-10T12:17:43.589Z,33.02
2022-08-10T12:18:43.910Z,32.43
2022-08-10T12:20:02.200Z,32.43
2022-08-10T12:20:45.431Z,32.62
2022-08-10T12:21:44.680Z,32.74
2022-08-10T12:22:44.899Z,32.64
2022-08-10T12:23:45.183Z,32.74
2022-08-10T12:24:45.436Z,33.23
2022-08-10T12:25:55.646Z,33.62
2022-08-10T12:26:46.934Z,33.33
2022-08-10T12:27:46.180Z,33.33
2022-08-10T12:28:51.458Z,33.12
2022-08-10T12:29:47.758Z,32.62
2022-08-10T12:30:47.036Z,32.82
2022-08-10T12:31:47.364Z,32.23
2022-08-10T12:32:47.713Z,32.51
2022-08-10T12:34:02.411Z,32.21
2022-08-10T12:34:50.911Z,32.31
2022-08-10T12:36:14.951Z,32.12
2022-08-10T12:36:49.902Z,32.12
2022-08-10T12:37:50.909Z,32.12
2022-08-10T12:38:49.460Z,33.67
2022-08-10T12:39:49.824Z,33.18
2022-08-10T12:40:50.136Z,32.01
2022-08-10T12:41:50.456Z,33.48
2022-08-10T12:43:01.527Z,33.87
2022-08-10T12:44:07.287Z,33.87
2022-08-10T12:44:52.257Z,32.20
2022-08-10T12:45:51.508Z,31.90
2022-08-10T12:46:51.808Z,32.10
2022-08-10T12:47:52.146Z,31.90
2022-08-10T12:48:52.540Z,33.08
2022-08-10T12:50:13.588Z,32.59
2022-08-10T12:50:54.025Z,32.30
2022-08-10T12:51:53.286Z,31.81
2022-08-10T12:52:53.517Z,31.71
2022-08-10T12:53:53.786Z,33.08
2022-08-10T12:54:53.967Z,31.71
2022-08-10T12:55:54.205Z,32.30
2022-08-10T12:56:54.448Z,33.18
2022-08-10T12:57:54.779Z,32.40